Brunehault, Belgium
Current Conditions -  °F | °C
As of 12:50 PM on Sunday 25 Jan 2015 (Local Time) from EBCI Reporting Station
Scattered Clouds Scattered Clouds  
Wind Chill:   Ceiling: Unl
Heat Index:   Visibility: 4mi
Dew Point:   Wind: 6mph
Humidity: 93%   Direction: 220°SW
Pressure: 30.42"   Gusts: NA
Location:  50.51°N, 4.43°E
Report Text: EBCI 251150Z 22005KT 7000 SCT013 03/02 Q1030 R25/290095 NOSIG
Loading
Personal Weather Stations






























Interactive Weather Map New forecast layout! Learn more

10-Day Weather Forecast

Advertisements
Track Severe Weather on mobile